Miami, Florida
Traffic Map
Current Weather Conditions
Miami, Florida
Broken Clouds
Broken Clouds
82°
Feels Like: 84°
Wind Chill: 82° Ceiling: 6000
Heat Index: 84° Visibility: 10mi
Dew Point: 67° Wind: 7mph
Humidity: 60% Direction: 190° (S)
Pressure: 29.93in Gusts: 0mph
Raw Report DataKOPF 211853Z 19006KT 10SM FEW046 BKN060 28/19 A2993 RMK AO2 SLP135 T02780194
Traffic Incident Summary
Active as of:
Severity:
Category:
InformationThere was an issue retrieving the traffic information for this location. Please try a different location or try again shortly.
Advertisements